createdAt,value
2022-08-09T00:00:23.375Z,66.35
2022-08-09T00:02:52.095Z,66.60
2022-08-09T00:06:19.039Z,66.55
2022-08-09T00:08:31.452Z,66.74
2022-08-09T00:11:00.247Z,66.72
2022-08-09T00:13:31.763Z,66.58
2022-08-09T00:16:02.419Z,66.73
2022-08-09T00:18:35.832Z,67.02
2022-08-09T00:21:08.954Z,67.06
2022-08-09T00:23:55.408Z,67.21
2022-08-09T00:26:30.057Z,66.92
2022-08-09T00:29:02.500Z,66.62
2022-08-09T00:31:59.682Z,66.90
2022-08-09T00:34:20.051Z,66.78
2022-08-09T00:36:49.072Z,66.70
2022-08-09T00:40:10.405Z,66.75
2022-08-09T00:44:15.597Z,66.81
2022-08-09T00:44:54.741Z,66.81
2022-08-09T00:47:25.020Z,66.87
2022-08-09T00:49:54.450Z,66.63
2022-08-09T00:52:30.543Z,66.62
2022-08-09T00:55:02.226Z,66.60
2022-08-09T00:57:35.336Z,66.32
2022-08-09T01:00:21.207Z,66.34
2022-08-09T01:03:08.223Z,66.40
2022-08-09T01:05:58.637Z,66.37
2022-08-09T01:08:56.094Z,66.10
2022-08-09T01:11:55.433Z,66.38
2022-08-09T01:14:39.967Z,66.29
2022-08-09T01:17:30.731Z,66.16
2022-08-09T01:20:08.655Z,66.17
2022-08-09T01:22:39.899Z,66.40
2022-08-09T01:25:30.830Z,66.30
2022-08-09T01:28:01.565Z,66.39
2022-08-09T01:30:35.736Z,66.25
2022-08-09T01:33:24.018Z,66.47
2022-08-09T01:35:59.853Z,66.46
2022-08-09T01:38:30.027Z,66.46
2022-08-09T01:41:15.615Z,66.36
2022-08-09T01:43:52.531Z,66.48
2022-08-09T01:46:27.679Z,66.18
2022-08-09T01:49:10.520Z,66.10
2022-08-09T01:51:54.378Z,66.20
2022-08-09T01:54:36.151Z,66.23
2022-08-09T01:57:17.520Z,66.04
2022-08-09T01:59:51.732Z,65.89
2022-08-09T02:02:31.105Z,65.98
2022-08-09T02:05:15.659Z,65.88
2022-08-09T02:08:40.229Z,65.90
2022-08-09T02:10:40.362Z,66.05
2022-08-09T02:13:12.936Z,66.10
2022-08-09T02:15:50.266Z,66.18
2022-08-09T02:18:23.743Z,66.28
2022-08-09T02:21:06.135Z,66.37
2022-08-09T02:23:43.254Z,66.16
2022-08-09T02:26:25.262Z,66.35
2022-08-09T02:29:00.052Z,66.39
2022-08-09T02:31:35.544Z,66.68
2022-08-09T02:34:40.571Z,66.63
2022-08-09T02:37:14.900Z,66.68
2022-08-09T02:39:49.687Z,66.67
2022-08-09T02:42:35.885Z,66.53
2022-08-09T02:45:29.404Z,66.58
2022-08-09T02:48:03.377Z,66.81
2022-08-09T02:50:49.298Z,67.03
2022-08-09T02:53:29.457Z,66.97
2022-08-09T02:55:59.914Z,67.36
2022-08-09T02:58:35.987Z,67.20
2022-08-09T03:01:08.418Z,67.14
2022-08-09T03:04:18.133Z,67.38
2022-08-09T03:06:30.795Z,67.48
2022-08-09T03:09:00.483Z,67.50
2022-08-09T03:12:04.610Z,67.50
2022-08-09T03:14:18.664Z,67.75
2022-08-09T03:16:49.739Z,67.77
2022-08-09T03:19:58.169Z,67.92
2022-08-09T03:22:11.798Z,67.86
2022-08-09T03:24:52.457Z,68.12
2022-08-09T03:27:44.624Z,68.12
2022-08-09T03:30:30.108Z,68.02
2022-08-09T03:33:12.968Z,68.14
2022-08-09T03:36:15.698Z,68.11
2022-08-09T03:38:42.108Z,68.26
2022-08-09T03:41:16.391Z,68.19
2022-08-09T03:44:03.442Z,68.32
2022-08-09T03:46:36.544Z,68.24
2022-08-09T03:49:07.908Z,68.32
2022-08-09T03:51:58.128Z,68.33
2022-08-09T03:54:34.545Z,68.19
2022-08-09T03:57:18.038Z,68.25
2022-08-09T03:59:56.159Z,68.21
2022-08-09T04:02:31.554Z,68.16
2022-08-09T04:05:06.645Z,68.28
2022-08-09T04:07:52.262Z,68.38
2022-08-09T04:10:29.536Z,68.37
2022-08-09T04:13:11.538Z,68.38
2022-08-09T04:16:18.044Z,68.44
2022-08-09T04:18:28.224Z,68.28
2022-08-09T04:20:55.976Z,68.50
2022-08-09T04:23:24.914Z,68.50
2022-08-09T04:25:54.986Z,68.85
2022-08-09T04:28:33.429Z,68.76
2022-08-09T04:31:09.457Z,68.64
2022-08-09T04:33:52.952Z,68.77
2022-08-09T04:36:28.059Z,68.99
2022-08-09T04:38:59.841Z,68.99
2022-08-09T04:41:32.527Z,69.04
2022-08-09T04:44:07.198Z,69.33
2022-08-09T04:46:59.089Z,69.56
2022-08-09T04:49:53.048Z,69.42
2022-08-09T04:52:26.605Z,69.62
2022-08-09T04:54:59.615Z,70.09
2022-08-09T04:57:58.660Z,69.79
2022-08-09T05:00:16.752Z,69.70
2022-08-09T05:02:51.688Z,69.86
2022-08-09T05:05:31.912Z,69.53
2022-08-09T05:08:09.278Z,70.15
2022-08-09T05:10:37.029Z,70.28
2022-08-09T05:13:05.049Z,70.65
2022-08-09T05:15:39.287Z,70.72
2022-08-09T05:18:38.329Z,70.68
2022-08-09T05:20:59.124Z,70.77
2022-08-09T05:23:54.541Z,70.94
2022-08-09T05:26:22.232Z,70.88
2022-08-09T05:29:02.258Z,70.69
2022-08-09T05:31:37.132Z,70.56
2022-08-09T05:34:17.054Z,70.52
2022-08-09T05:36:47.148Z,70.48
2022-08-09T05:39:28.330Z,70.50
2022-08-09T05:42:01.574Z,70.23
2022-08-09T05:44:34.889Z,70.65
2022-08-09T05:47:05.692Z,70.25
2022-08-09T05:50:30.973Z,70.34
2022-08-09T05:52:24.692Z,70.29
2022-08-09T05:54:52.508Z,70.07
2022-08-09T05:57:20.066Z,70.23
2022-08-09T05:59:53.155Z,70.31
2022-08-09T06:02:20.843Z,70.12
2022-08-09T06:04:49.713Z,70.00
2022-08-09T06:07:21.306Z,70.01
2022-08-09T06:10:01.811Z,69.80
2022-08-09T06:12:31.892Z,69.83
2022-08-09T06:15:01.560Z,69.86
2022-08-09T06:17:40.374Z,69.57
2022-08-09T06:20:09.746Z,69.59
2022-08-09T06:22:37.372Z,69.51
2022-08-09T06:25:08.594Z,69.40
2022-08-09T06:27:42.409Z,69.30
2022-08-09T06:30:13.911Z,69.08
2022-08-09T06:32:59.822Z,68.84
2022-08-09T06:35:56.390Z,68.58
2022-08-09T06:38:19.260Z,68.24
2022-08-09T06:40:46.955Z,67.88
2022-08-09T06:43:14.715Z,67.78
2022-08-09T06:46:07.169Z,67.37
2022-08-09T06:48:30.949Z,67.21
2022-08-09T06:51:01.470Z,67.15
2022-08-09T06:53:38.238Z,66.31
2022-08-09T06:56:09.136Z,65.96
2022-08-09T07:00:47.675Z,65.16
2022-08-09T07:01:35.726Z,63.99
2022-08-09T07:04:20.212Z,63.00
2022-08-09T07:06:53.334Z,61.69
2022-08-09T07:09:55.661Z,60.87
2022-08-09T07:12:20.193Z,60.67
2022-08-09T07:14:51.436Z,59.68
2022-08-09T07:17:21.891Z,58.62
2022-08-09T07:19:55.462Z,56.72
2022-08-09T07:22:27.281Z,54.89
2022-08-09T07:25:09.791Z,53.07
2022-08-09T07:27:43.211Z,51.88
2022-08-09T07:30:21.774Z,50.08
2022-08-09T07:32:53.298Z,49.23
2022-08-09T07:35:23.401Z,48.14
2022-08-09T07:37:54.138Z,47.66
2022-08-09T07:40:37.361Z,47.36
2022-08-09T07:43:16.896Z,48.39
2022-08-09T07:45:44.806Z,48.87
2022-08-09T07:48:25.384Z,49.60
2022-08-09T07:51:09.105Z,50.40
2022-08-09T07:54:07.219Z,51.29
2022-08-09T07:56:44.761Z,52.39
2022-08-09T07:59:33.842Z,52.99
2022-08-09T08:02:09.107Z,52.63
2022-08-09T08:04:37.340Z,51.86
2022-08-09T08:07:15.467Z,51.63
2022-08-09T08:09:55.205Z,50.53
2022-08-09T08:12:43.184Z,49.59
2022-08-09T08:15:16.869Z,48.32
2022-08-09T08:17:53.174Z,47.45
2022-08-09T08:20:30.472Z,45.78
2022-08-09T08:23:06.403Z,45.28
2022-08-09T08:25:54.335Z,44.54
2022-08-09T08:28:35.068Z,43.81
2022-08-09T08:31:13.818Z,43.52
2022-08-09T08:33:53.187Z,42.77
2022-08-09T08:36:28.985Z,42.58
2022-08-09T08:38:57.337Z,43.18
2022-08-09T08:41:41.841Z,43.25
2022-08-09T08:44:14.679Z,42.32
2022-08-09T08:47:02.331Z,42.33
2022-08-09T08:49:47.281Z,41.41
2022-08-09T08:55:19.112Z,39.92
2022-08-09T08:57:56.377Z,38.77
2022-08-09T09:00:30.031Z,38.13
2022-08-09T09:03:08.588Z,36.80
2022-08-09T09:05:59.716Z,36.40
2022-08-09T09:08:40.735Z,35.50
2022-08-09T09:11:13.783Z,35.36
2022-08-09T09:13:56.159Z,34.95
2022-08-09T09:16:31.014Z,34.49
2022-08-09T09:22:03.978Z,32.94
2022-08-09T09:24:45.675Z,32.26
2022-08-09T09:28:04.499Z,31.97
2022-08-09T09:30:34.558Z,32.55
2022-08-09T09:33:16.750Z,33.04
2022-08-09T09:36:01.947Z,33.88
2022-08-09T09:38:41.618Z,33.29
2022-08-09T09:41:11.957Z,33.08
2022-08-09T09:43:41.481Z,33.21
2022-08-09T09:46:42.083Z,32.59
2022-08-09T09:49:13.243Z,32.00
2022-08-09T09:51:41.972Z,31.19
2022-08-09T09:54:18.078Z,30.69
2022-08-09T09:56:53.409Z,30.11
2022-08-09T09:59:38.008Z,29.29
2022-08-09T10:02:06.745Z,30.25
2022-08-09T10:04:35.946Z,29.69
2022-08-09T10:07:09.962Z,29.93
2022-08-09T10:09:55.643Z,29.54
2022-08-09T10:12:31.435Z,30.78
2022-08-09T10:15:17.531Z,31.50
2022-08-09T10:18:11.876Z,32.35
2022-08-09T10:20:44.556Z,32.46
2022-08-09T10:23:21.877Z,32.23
2022-08-09T10:26:06.587Z,31.88
2022-08-09T10:28:40.276Z,32.09
2022-08-09T10:34:08.639Z,34.02
2022-08-09T10:36:40.148Z,34.07
2022-08-09T10:39:15.487Z,34.59
2022-08-09T10:41:44.443Z,35.20
2022-08-09T10:44:12.519Z,34.64
2022-08-09T10:46:54.716Z,33.38
2022-08-09T10:49:51.698Z,32.45
2022-08-09T10:53:12.971Z,31.67
2022-08-09T10:55:55.774Z,31.58
2022-08-09T10:58:33.802Z,30.09
2022-08-09T11:03:06.814Z,30.10
2022-08-09T11:04:20.037Z,29.16
2022-08-09T11:07:01.179Z,28.94
2022-08-09T11:09:38.283Z,28.14
2022-08-09T11:12:30.469Z,27.91
2022-08-09T11:15:18.930Z,27.70
2022-08-09T11:17:56.807Z,26.85
2022-08-09T11:20:43.362Z,26.96
2022-08-09T11:23:12.160Z,27.48
2022-08-09T11:25:46.043Z,28.07
2022-08-09T11:28:38.767Z,27.31
2022-08-09T11:31:49.476Z,28.19
2022-08-09T11:34:33.398Z,27.54
2022-08-09T11:37:07.151Z,28.41
2022-08-09T11:40:02.872Z,27.61
2022-08-09T11:42:38.735Z,27.14
2022-08-09T11:45:23.008Z,26.99
2022-08-09T11:47:57.966Z,26.50
2022-08-09T11:52:57.091Z,26.40
2022-08-09T11:54:29.653Z,26.83
2022-08-09T11:57:59.724Z,26.51
2022-08-09T12:00:28.945Z,26.07
2022-08-09T12:02:58.788Z,27.25
2022-08-09T12:05:39.530Z,27.60
2022-08-09T12:08:12.412Z,27.38
2022-08-09T12:10:56.731Z,27.62
2022-08-09T12:14:07.896Z,27.28
2022-08-09T12:16:38.479Z,28.19
2022-08-09T12:19:12.035Z,29.28
2022-08-09T12:21:48.678Z,29.24
2022-08-09T12:24:24.410Z,28.85
2022-08-09T12:29:13.079Z,28.38
2022-08-09T12:30:00.131Z,29.19
2022-08-09T12:32:44.199Z,29.56
2022-08-09T12:35:13.221Z,29.95
2022-08-09T12:37:51.526Z,30.41
2022-08-09T12:40:23.169Z,30.56
2022-08-09T12:42:54.212Z,29.89
2022-08-09T12:45:34.178Z,29.75
2022-08-09T12:48:20.191Z,30.06
2022-08-09T12:50:59.616Z,30.42
2022-08-09T12:53:37.749Z,30.02
2022-08-09T12:56:40.125Z,29.84
2022-08-09T12:59:14.432Z,29.98
2022-08-09T13:01:49.999Z,29.17
2022-08-09T13:04:37.988Z,29.09
2022-08-09T13:07:19.858Z,29.03
2022-08-09T13:10:04.205Z,28.79
2022-08-09T13:12:32.695Z,29.64
2022-08-09T13:15:09.772Z,29.42
2022-08-09T13:18:02.896Z,29.45
2022-08-09T13:20:37.938Z,29.73
2022-08-09T13:24:06.460Z,30.11
2022-08-09T13:26:49.854Z,30.17
2022-08-09T13:29:28.445Z,30.92
2022-08-09T13:32:20.020Z,30.71
2022-08-09T13:34:55.453Z,30.70
2022-08-09T13:37:51.329Z,30.42
2022-08-09T13:41:50.541Z,30.79
2022-08-09T13:43:00.149Z,30.70
2022-08-09T13:46:44.429Z,30.23
2022-08-09T13:48:20.943Z,30.18
2022-08-09T13:50:49.076Z,31.07
2022-08-09T13:53:17.617Z,31.38
2022-08-09T13:55:47.944Z,31.31
2022-08-09T13:58:15.871Z,31.16
2022-08-09T14:00:49.944Z,31.07
2022-08-09T14:04:03.366Z,31.49
2022-08-09T14:06:14.791Z,31.86
2022-08-09T14:08:54.287Z,32.76
2022-08-09T14:11:22.712Z,33.05
2022-08-09T14:14:22.922Z,32.88
2022-08-09T14:16:40.217Z,32.80
2022-08-09T14:19:08.137Z,33.28
2022-08-09T14:21:36.370Z,33.05
2022-08-09T14:24:09.999Z,32.88
2022-08-09T14:26:38.320Z,33.16
2022-08-09T14:29:25.458Z,33.69
2022-08-09T14:31:56.277Z,33.61
2022-08-09T14:34:30.891Z,33.59
2022-08-09T14:37:01.984Z,34.18
2022-08-09T14:39:47.537Z,34.55
2022-08-09T14:42:32.193Z,34.17
2022-08-09T14:46:54.550Z,34.59
2022-08-09T14:47:59.686Z,35.03
2022-08-09T14:50:31.235Z,34.81
2022-08-09T14:53:06.269Z,35.58
2022-08-09T14:55:48.083Z,35.52
2022-08-09T14:58:19.210Z,35.74
2022-08-09T15:00:48.163Z,35.76
2022-08-09T15:03:20.585Z,35.79
2022-08-09T15:05:52.467Z,36.50
2022-08-09T15:08:24.557Z,36.91
2022-08-09T15:11:00.469Z,37.16
2022-08-09T15:13:56.445Z,36.98
2022-08-09T15:16:17.921Z,36.68
2022-08-09T15:18:49.432Z,37.21
2022-08-09T15:21:55.731Z,37.69
2022-08-09T15:24:17.498Z,38.25
2022-08-09T15:26:53.248Z,38.35
2022-08-09T15:30:58.149Z,38.19
2022-08-09T15:32:28.573Z,38.32
2022-08-09T15:35:01.197Z,38.44
2022-08-09T15:37:37.519Z,38.55
2022-08-09T15:40:11.671Z,38.80
2022-08-09T15:42:42.485Z,38.94
2022-08-09T15:45:12.819Z,38.84
2022-08-09T15:47:47.172Z,39.67
2022-08-09T15:50:20.799Z,39.86
2022-08-09T15:53:06.017Z,39.87
2022-08-09T15:55:59.048Z,40.23
2022-08-09T15:58:26.792Z,40.57
2022-08-09T16:00:56.628Z,41.02
2022-08-09T16:03:29.752Z,40.58
2022-08-09T16:06:07.475Z,40.71
2022-08-09T16:08:56.218Z,40.98
2022-08-09T16:11:23.916Z,41.19
2022-08-09T16:14:03.275Z,41.27
2022-08-09T16:16:41.948Z,41.38
2022-08-09T16:19:13.824Z,41.05
2022-08-09T16:21:43.050Z,41.27
2022-08-09T16:24:33.678Z,41.05
2022-08-09T16:27:05.267Z,41.46
2022-08-09T16:29:37.763Z,41.21
2022-08-09T16:32:34.172Z,40.84
2022-08-09T16:35:02.726Z,40.31
2022-08-09T16:37:55.442Z,39.93
2022-08-09T16:40:29.435Z,40.01
2022-08-09T16:43:07.225Z,39.75
2022-08-09T16:45:35.055Z,39.42
2022-08-09T16:48:50.595Z,39.38
2022-08-09T16:50:59.618Z,39.08
2022-08-09T16:53:36.439Z,38.82
2022-08-09T16:56:09.960Z,39.18
2022-08-09T16:58:42.591Z,39.11
2022-08-09T17:01:19.511Z,38.85
2022-08-09T17:03:51.705Z,38.86
2022-08-09T17:06:31.433Z,38.91
2022-08-09T17:09:10.694Z,39.19
2022-08-09T17:11:51.590Z,39.61
2022-08-09T17:14:25.573Z,39.51
2022-08-09T17:17:01.955Z,39.93
2022-08-09T17:19:47.351Z,40.23
2022-08-09T17:22:28.835Z,40.55
2022-08-09T17:25:03.769Z,40.83
2022-08-09T17:27:38.219Z,40.80
2022-08-09T17:30:12.828Z,40.34
2022-08-09T17:32:44.411Z,40.72
2022-08-09T17:35:14.663Z,40.25
2022-08-09T17:38:11.159Z,40.29
2022-08-09T17:40:34.532Z,40.77
2022-08-09T17:43:32.049Z,40.25
2022-08-09T17:46:03.254Z,40.63
2022-08-09T17:48:40.356Z,40.04
2022-08-09T17:51:18.338Z,40.43
2022-08-09T17:53:51.903Z,40.24
2022-08-09T17:56:27.039Z,40.23
2022-08-09T17:59:03.026Z,40.10
2022-08-09T18:01:58.056Z,40.70
2022-08-09T18:04:20.428Z,40.02
2022-08-09T18:06:54.341Z,40.66
2022-08-09T18:09:39.987Z,40.75
2022-08-09T18:12:17.599Z,41.12
2022-08-09T18:14:54.431Z,40.90
2022-08-09T18:18:03.407Z,41.32
2022-08-09T18:20:55.677Z,40.94
2022-08-09T18:23:05.194Z,41.71
2022-08-09T18:25:52.972Z,41.70
2022-08-09T18:30:40.621Z,41.67
2022-08-09T18:31:15.536Z,41.73
2022-08-09T18:33:53.945Z,41.50
2022-08-09T18:36:26.057Z,41.90
2022-08-09T18:39:02.579Z,41.68
2022-08-09T18:41:34.895Z,42.30
2022-08-09T18:44:13.758Z,42.32
2022-08-09T18:47:01.219Z,42.26
2022-08-09T18:49:43.413Z,42.45
2022-08-09T18:52:24.921Z,42.89
2022-08-09T18:55:03.882Z,43.33
2022-08-09T18:57:38.617Z,43.33
2022-08-09T19:00:19.115Z,43.42
2022-08-09T19:02:50.994Z,43.54
2022-08-09T19:05:41.358Z,43.64
2022-08-09T19:08:10.774Z,44.05
2022-08-09T19:10:46.218Z,44.30
2022-08-09T19:13:22.909Z,44.28
2022-08-09T19:16:02.379Z,44.21
2022-08-09T19:18:33.926Z,44.89
2022-08-09T19:21:08.778Z,45.25
2022-08-09T19:24:33.390Z,45.07
2022-08-09T19:26:32.376Z,45.63
2022-08-09T19:29:18.239Z,46.12
2022-08-09T19:31:49.586Z,45.99
2022-08-09T19:34:21.729Z,46.08
2022-08-09T19:36:53.027Z,46.45
2022-08-09T19:39:43.818Z,46.86
2022-08-09T19:42:14.687Z,47.06
2022-08-09T19:44:50.903Z,46.89
2022-08-09T19:47:22.907Z,46.76
2022-08-09T19:50:08.330Z,47.11
2022-08-09T19:52:49.619Z,47.61
2022-08-09T19:55:31.043Z,48.04
2022-08-09T19:58:16.076Z,48.10
2022-08-09T20:00:46.400Z,48.34
2022-08-09T20:04:13.853Z,48.80
2022-08-09T20:06:04.979Z,49.02
2022-08-09T20:11:33.817Z,49.34
2022-08-09T20:14:15.432Z,49.45
2022-08-09T20:16:54.047Z,49.76
2022-08-09T20:19:47.518Z,49.91
2022-08-09T20:22:14.444Z,50.14
2022-08-09T20:24:54.382Z,50.24
2022-08-09T20:27:22.715Z,50.69
2022-08-09T20:29:50.573Z,50.92
2022-08-09T20:32:42.075Z,51.23
2022-08-09T20:35:07.372Z,51.42
2022-08-09T20:37:37.335Z,51.94
2022-08-09T20:40:27.202Z,53.06
2022-08-09T20:43:19.123Z,54.84
2022-08-09T20:45:59.898Z,55.50
2022-08-09T20:48:38.489Z,56.21
2022-08-09T20:51:07.403Z,56.47
2022-08-09T20:53:48.859Z,56.82
2022-08-09T20:56:20.373Z,57.36
2022-08-09T20:58:50.747Z,57.50
2022-08-09T21:01:35.310Z,57.75
2022-08-09T21:05:51.204Z,58.17
2022-08-09T21:06:59.226Z,58.20
2022-08-09T21:09:56.756Z,58.47
2022-08-09T21:12:32.145Z,58.62
2022-08-09T21:15:17.636Z,58.72
2022-08-09T21:18:21.398Z,58.96
2022-08-09T21:20:41.528Z,59.21
2022-08-09T21:23:13.087Z,59.47
2022-08-09T21:25:59.459Z,59.61
2022-08-09T21:28:35.840Z,59.95
2022-08-09T21:31:17.241Z,59.81
2022-08-09T21:33:51.341Z,60.42
2022-08-09T21:36:27.816Z,60.27
2022-08-09T21:38:59.568Z,60.50
2022-08-09T21:42:03.895Z,60.57
2022-08-09T21:44:34.385Z,60.80
2022-08-09T21:47:08.837Z,60.75
2022-08-09T21:49:42.765Z,60.98
2022-08-09T21:52:14.846Z,61.31
2022-08-09T21:54:59.290Z,61.54
2022-08-09T21:57:39.218Z,61.37
2022-08-09T22:00:32.611Z,61.61
2022-08-09T22:03:07.591Z,61.78
2022-08-09T22:05:51.277Z,61.94
2022-08-09T22:08:19.813Z,62.13
2022-08-09T22:11:50.465Z,62.28
2022-08-09T22:13:42.257Z,62.32
2022-08-09T22:16:12.041Z,62.33
2022-08-09T22:18:52.981Z,62.71
2022-08-09T22:21:27.368Z,62.99
2022-08-09T22:24:20.899Z,63.07
2022-08-09T22:26:52.383Z,62.90
2022-08-09T22:29:28.466Z,62.89
2022-08-09T22:32:29.380Z,63.36
2022-08-09T22:34:59.354Z,63.65
2022-08-09T22:37:40.546Z,63.54
2022-08-09T22:40:10.739Z,63.74
2022-08-09T22:42:48.172Z,63.62
2022-08-09T22:48:16.875Z,63.84
2022-08-09T22:48:17.368Z,63.99
2022-08-09T22:50:52.986Z,63.96
2022-08-09T22:53:21.082Z,64.09
2022-08-09T22:56:30.564Z,64.26
2022-08-09T22:58:38.323Z,64.10
2022-08-09T23:01:06.277Z,64.16
2022-08-09T23:04:03.445Z,64.31
2022-08-09T23:06:32.796Z,64.14
2022-08-09T23:09:07.107Z,64.45
2022-08-09T23:11:35.348Z,64.58
2022-08-09T23:14:04.019Z,64.46
2022-08-09T23:16:37.668Z,64.59
2022-08-09T23:19:05.287Z,64.95
2022-08-09T23:21:36.381Z,65.29
2022-08-09T23:24:07.412Z,65.43
2022-08-09T23:26:36.747Z,65.19
2022-08-09T23:29:11.619Z,65.43
2022-08-09T23:31:40.905Z,65.64
2022-08-09T23:34:09.238Z,65.58
2022-08-09T23:36:37.086Z,65.58
2022-08-09T23:39:06.404Z,65.34
2022-08-09T23:41:35.295Z,65.75
2022-08-09T23:44:04.054Z,65.84
